Time;durP1;ratioP1;P1;durP2;ratioP2;P2;SDS_P1;SDS_P2;PMS_P1;PMS_P2;Temp;Humidity;BMP_temperature;BMP_pressure;BME280_temperature;BME280_humidity;BME280_pressure;Samples;Min_cycle;Max_cycle;Signal;HPM_P1;HPM_P2
2022/01/27 00:00:46;;;;;;;;;5.00;5.00;;;;;21.42;48.93;101067.87;110207;1269;19117;-68
2022/01/27 00:03:22;;;;;;;;;3.67;3.67;;;;;21.42;48.97;101070.27;110735;1267;18983;-68
2022/01/27 00:05:53;;;;;;;;;6.67;6.00;;;;;21.42;48.97;101067.02;110745;1267;18257;-67
2022/01/27 00:08:40;;;;;;;;;5.67;5.00;;;;;21.42;48.88;101066.44;110549;1268;18706;-70
2022/01/27 00:11:12;;;;;;;;;3.67;3.67;;;;;21.42;48.82;101072.62;110575;1267;19064;-69
2022/01/27 00:13:46;;;;;;;;;5.00;5.00;;;;;21.42;48.90;101064.27;110591;1268;17992;-69
2022/01/27 00:16:16;;;;;;;;;4.33;3.00;;;;;21.43;49.02;101063.67;110547;1267;18704;-69
2022/01/27 00:18:43;;;;;;;;;3.00;3.00;;;;;21.42;49.09;101058.67;110558;1267;18658;-69
2022/01/27 00:21:10;;;;;;;;;3.67;3.67;;;;;21.41;48.89;101055.48;110712;1267;18137;-69
2022/01/27 00:23:37;;;;;;;;;5.00;5.00;;;;;21.42;48.82;101049.95;110745;1268;18621;-68
2022/01/27 00:26:05;;;;;;;;;5.00;5.00;;;;;21.42;48.77;101049.44;110647;1267;18360;-68
2022/01/27 00:28:32;;;;;;;;;5.33;4.33;;;;;21.41;48.79;101045.29;110585;1268;17985;-67
2022/01/27 00:30:59;;;;;;;;;5.00;4.33;;;;;21.41;48.95;101054.55;110856;1264;20888;-68
2022/01/27 00:33:26;;;;;;;;;3.67;3.00;;;;;21.42;48.77;101049.81;110892;1263;19528;-68
2022/01/27 00:35:54;;;;;;;;;7.00;6.00;;;;;21.41;48.95;101044.63;110859;1264;18033;-68
2022/01/27 00:38:21;;;;;;;;;4.33;4.33;;;;;21.41;48.88;101049.98;110900;1264;26711;-68
2022/01/27 00:40:48;;;;;;;;;5.00;5.00;;;;;21.41;48.76;101047.33;110878;1263;20060;-68
2022/01/27 00:43:15;;;;;;;;;5.00;3.00;;;;;21.40;48.77;101046.64;110895;1264;20452;-70
2022/01/27 00:45:43;;;;;;;;;5.00;5.00;;;;;21.40;48.68;101041.75;110904;1264;18675;-70
2022/01/27 00:48:10;;;;;;;;;4.33;3.67;;;;;21.37;49.00;101023.94;110830;1263;19102;-70
2022/01/27 00:50:38;;;;;;;;;6.00;5.00;;;;;21.41;48.75;101028.27;110900;1264;21735;-70
2022/01/27 00:53:19;;;;;;;;;5.33;5.00;;;;;21.41;48.75;101022.82;110878;1264;19921;-69
2022/01/27 00:55:46;;;;;;;;;5.33;5.33;;;;;21.41;48.53;101023.16;110860;1263;21475;-68
2022/01/27 00:58:27;;;;;;;;;5.00;3.67;;;;;21.38;48.79;101011.46;110890;1264;20525;-68
2022/01/27 01:00:59;;;;;;;;;5.00;5.00;;;;;21.42;48.66;101015.08;110927;1264;19829;-70
2022/01/27 01:03:31;;;;;;;;;3.00;3.00;;;;;21.40;48.49;101010.48;110902;1264;18970;-69
2022/01/27 01:14:34;;;;;;;;;3.67;3.67;;;;;21.41;48.70;101011.30;109627;1273;18307;-68
2022/01/27 01:17:08;;;;;;;;;5.00;3.00;;;;;21.41;48.68;101007.14;109585;1273;24897;-69
2022/01/27 01:19:53;;;;;;;;;3.00;3.00;;;;;21.41;48.73;101007.14;109591;1273;22282;-70
2022/01/27 01:30:47;;;;;;;;;4.00;4.00;;;;;21.40;48.60;101011.77;109560;1273;22825;-69
2022/01/27 01:33:21;;;;;;;;;5.00;5.00;;;;;21.40;48.67;101006.48;109605;1273;19822;-70
2022/01/27 01:35:49;;;;;;;;;6.00;5.00;;;;;21.40;48.37;101006.68;109558;1273;18595;-69
2022/01/27 01:38:18;;;;;;;;;5.00;3.00;;;;;21.41;48.38;101006.66;109586;1273;19244;-71
2022/01/27 01:40:45;;;;;;;;;5.00;5.00;;;;;21.40;48.58;101005.56;109515;1273;18715;-69
2022/01/27 01:43:12;;;;;;;;;5.00;5.00;;;;;21.40;48.72;100998.92;109487;1273;18731;-70
2022/01/27 01:45:39;;;;;;;;;3.00;3.00;;;;;21.37;48.49;100998.09;109493;1273;18715;-70
2022/01/27 01:48:07;;;;;;;;;5.00;5.00;;;;;21.40;48.42;100998.02;109585;1271;19606;-68
2022/01/27 01:50:34;;;;;;;;;6.00;5.67;;;;;21.39;48.47;100996.49;109970;1270;21647;-70
2022/01/27 01:53:01;;;;;;;;;4.33;3.67;;;;;21.39;48.34;100999.90;110755;1265;18144;-70
2022/01/27 01:55:28;;;;;;;;;5.00;4.33;;;;;21.39;48.56;101000.11;110792;1265;18847;-69
2022/01/27 01:57:57;;;;;;;;;3.67;3.67;;;;;21.40;48.24;101004.02;110856;1264;18613;-69
2022/01/27 02:00:24;;;;;;;;;3.00;3.00;;;;;21.39;48.33;101001.88;110912;1264;18996;-69
2022/01/27 02:02:52;;;;;;;;;3.00;3.00;;;;;21.39;48.42;100998.82;110933;1264;19227;-68
2022/01/27 02:05:19;;;;;;;;;5.00;5.00;;;;;21.37;48.25;100988.66;110691;1264;196836;-68
2022/01/27 02:07:53;;;;;;;;;3.00;3.00;;;;;21.38;48.34;100984.45;110862;1264;19077;-68
2022/01/27 02:10:35;;;;;;;;;3.00;3.00;;;;;21.38;48.31;100986.20;110847;1264;21011;-67
2022/01/27 02:18:31;;;;;;;;;3.00;3.00;;;;;21.36;48.39;100982.98;110885;1264;19051;-69
2022/01/27 02:20:59;;;;;;;;;3.00;3.00;;;;;21.36;48.15;100988.81;110937;1264;18490;-69
2022/01/27 02:23:26;;;;;;;;;6.00;6.00;;;;;21.35;48.17;100995.05;110958;1265;19835;-68
2022/01/27 02:25:53;;;;;;;;;5.00;3.00;;;;;21.35;48.16;100992.91;110916;1264;18984;-67
2022/01/27 02:28:20;;;;;;;;;5.00;4.33;;;;;21.36;48.08;100991.19;110908;1264;19789;-68
2022/01/27 02:30:47;;;;;;;;;5.33;5.00;;;;;21.34;48.30;100983.70;110923;1264;21540;-68
2022/01/27 02:33:15;;;;;;;;;5.33;5.00;;;;;21.33;48.09;100981.47;110944;1264;22202;-68
2022/01/27 02:35:43;;;;;;;;;4.33;3.00;;;;;21.34;48.06;100981.89;110884;1264;18360;-68
2022/01/27 02:38:10;;;;;;;;;3.00;3.00;;;;;21.34;48.27;100974.29;110884;1264;18115;-68
2022/01/27 02:40:37;;;;;;;;;5.00;5.00;;;;;21.35;48.13;100981.45;110942;1264;18731;-69
2022/01/27 02:43:04;;;;;;;;;5.00;5.00;;;;;21.35;48.22;100984.17;110940;1265;19022;-68
2022/01/27 02:45:32;;;;;;;;;6.00;5.00;;;;;21.34;48.19;100977.89;110891;1263;19666;-68
2022/01/27 02:47:59;;;;;;;;;5.00;5.00;;;;;21.34;48.24;100973.53;110911;1264;18901;-68
2022/01/27 02:50:27;;;;;;;;;5.00;5.00;;;;;21.32;48.08;100959.02;110944;1264;20752;-68
2022/01/27 02:52:54;;;;;;;;;5.00;5.00;;;;;21.32;48.19;100945.77;110959;1262;17946;-68
2022/01/27 02:55:21;;;;;;;;;4.33;4.33;;;;;21.32;48.04;100949.00;110949;1263;20542;-68
2022/01/27 02:57:48;;;;;;;;;5.00;5.00;;;;;21.33;48.02;100946.95;110885;1262;19001;-69
2022/01/27 03:00:15;;;;;;;;;6.00;5.00;;;;;21.33;47.97;100939.08;110876;1263;20831;-68
2022/01/27 03:02:43;;;;;;;;;5.00;5.00;;;;;21.33;48.17;100936.80;110894;1264;20089;-70
2022/01/27 03:05:10;;;;;;;;;5.67;5.00;;;;;21.32;47.97;100938.13;110927;1264;18489;-68
2022/01/27 03:07:37;;;;;;;;;3.00;3.00;;;;;21.32;47.98;100935.61;110894;1263;20386;-68
2022/01/27 03:10:04;;;;;;;;;3.00;3.00;;;;;21.34;48.05;100943.72;110914;1264;20435;-69
2022/01/27 03:12:36;;;;;;;;;3.67;3.00;;;;;21.33;47.90;100938.23;110887;1265;18394;-70
2022/01/27 03:15:03;;;;;;;;;6.00;5.00;;;;;21.31;48.06;100924.67;110851;1263;18879;-70
2022/01/27 03:17:30;;;;;;;;;6.50;5.50;;;;;21.32;48.07;100923.04;110928;1264;19016;-70
2022/01/27 03:19:58;;;;;;;;;5.50;5.00;;;;;21.33;48.09;100912.64;110898;1264;18739;-71
2022/01/27 03:22:25;;;;;;;;;5.00;5.00;;;;;21.32;48.04;100906.16;110851;1263;20583;-69
2022/01/27 03:24:52;;;;;;;;;5.00;5.00;;;;;21.32;48.07;100902.83;110869;1262;18656;-68
2022/01/27 03:27:20;;;;;;;;;6.67;5.67;;;;;21.34;47.80;100905.95;110879;1263;18615;-70
2022/01/27 03:29:47;;;;;;;;;5.33;4.33;;;;;21.33;48.01;100911.51;110895;1264;18254;-71
2022/01/27 03:32:15;;;;;;;;;3.67;3.67;;;;;21.33;48.03;100923.30;110872;1262;18991;-70
2022/01/27 03:34:42;;;;;;;;;6.00;5.00;;;;;21.33;47.99;100919.89;110847;1262;18335;-70
2022/01/27 03:37:09;;;;;;;;;5.00;4.33;;;;;21.33;47.78;100921.87;110881;1262;18389;-71
2022/01/27 03:39:38;;;;;;;;;3.00;3.00;;;;;21.33;47.78;100911.31;110863;1263;20166;-70
2022/01/27 03:42:05;;;;;;;;;5.50;5.50;;;;;21.32;47.85;100912.37;110849;1263;19563;-68
2022/01/27 03:44:33;;;;;;;;;3.00;3.00;;;;;21.32;47.70;100913.80;110895;1264;18465;-68
2022/01/27 03:47:00;;;;;;;;;5.00;3.67;;;;;21.32;47.72;100911.41;110890;1264;20191;-70
2022/01/27 03:49:27;;;;;;;;;7.00;6.67;;;;;21.31;47.99;100901.00;110892;1262;20242;-69
2022/01/27 03:51:58;;;;;;;;;6.00;5.00;;;;;21.32;47.91;100900.04;110908;1263;17946;-69
2022/01/27 03:54:26;;;;;;;;;6.00;5.00;;;;;21.32;47.75;100893.12;110890;1262;18677;-70
2022/01/27 03:56:53;;;;;;;;;5.00;5.00;;;;;21.31;47.92;100895.89;110887;1264;22170;-70
2022/01/27 03:59:20;;;;;;;;;5.50;5.00;;;;;21.31;47.79;100893.88;110915;1261;18929;-69
2022/01/27 04:01:48;;;;;;;;;7.00;6.00;;;;;21.32;47.87;100889.67;110857;1262;20326;-70
2022/01/27 04:04:15;;;;;;;;;7.67;6.33;;;;;21.31;47.84;100887.44;110863;1262;18398;-69
2022/01/27 04:06:42;;;;;;;;;8.33;6.67;;;;;21.30;47.78;100882.73;110905;1263;19242;-68
2022/01/27 04:09:10;;;;;;;;;6.00;5.33;;;;;21.31;47.66;100872.67;110912;1264;18755;-69
2022/01/27 04:11:37;;;;;;;;;7.00;6.00;;;;;21.30;47.75;100861.30;110889;1264;21411;-69
2022/01/27 04:14:04;;;;;;;;;5.00;5.00;;;;;21.32;47.86;100854.71;110840;1262;19960;-67
2022/01/27 04:16:32;;;;;;;;;6.00;6.00;;;;;21.32;47.78;100849.49;110912;1263;19015;-68
2022/01/27 04:18:59;;;;;;;;;7.00;7.00;;;;;21.32;47.78;100862.38;110895;1262;20720;-68
2022/01/27 04:21:26;;;;;;;;;7.00;6.00;;;;;21.32;47.77;100857.71;110912;1263;19543;-68
2022/01/27 04:23:53;;;;;;;;;6.00;5.00;;;;;21.31;47.65;100857.08;111083;1262;19009;-66
2022/01/27 04:26:27;;;;;;;;;6.00;5.00;;;;;21.29;47.71;100855.77;110924;1262;19176;-68
2022/01/27 04:28:54;;;;;;;;;6.33;6.00;;;;;21.30;47.67;100858.62;110945;1263;17947;-68
2022/01/27 04:31:24;;;;;;;;;5.50;5.00;;;;;21.29;47.85;100850.48;110845;1262;19338;-68
2022/01/27 04:33:51;;;;;;;;;5.33;5.33;;;;;21.29;47.81;100847.41;110868;1262;18408;-67
2022/01/27 04:36:24;;;;;;;;;6.00;6.00;;;;;21.28;47.71;100841.75;110867;1263;18734;-67
2022/01/27 04:38:57;;;;;;;;;6.00;5.33;;;;;21.28;47.67;100835.36;110968;1264;18922;-67
2022/01/27 04:41:33;;;;;;;;;7.00;6.00;;;;;21.28;47.63;100833.37;110909;1262;19802;-70
2022/01/27 04:44:08;;;;;;;;;6.00;6.00;;;;;21.29;47.61;100831.09;110860;1264;19670;-67
2022/01/27 04:46:42;;;;;;;;;5.00;5.00;;;;;21.29;47.74;100829.14;110874;1264;18806;-67
2022/01/27 04:49:10;;;;;;;;;6.00;6.00;;;;;21.28;47.86;100820.97;110911;1262;18876;-68
2022/01/27 04:51:38;;;;;;;;;6.00;5.33;;;;;21.29;47.77;100811.67;110876;1262;17987;-68
2022/01/27 04:54:11;;;;;;;;;8.33;6.67;;;;;21.29;47.60;100810.08;110916;1264;21840;-68
2022/01/27 04:56:40;;;;;;;;;6.00;5.00;;;;;21.28;47.58;100804.26;110946;1264;19050;-69
2022/01/27 04:59:13;;;;;;;;;7.00;7.00;;;;;21.28;47.52;100803.02;110839;1263;18313;-69
2022/01/27 05:01:45;;;;;;;;;7.00;6.00;;;;;21.29;47.49;100797.84;110844;1262;18865;-69
2022/01/27 05:04:15;;;;;;;;;5.00;5.00;;;;;21.28;47.56;100795.38;110885;1263;20572;-69
2022/01/27 05:06:42;;;;;;;;;5.67;5.00;;;;;21.29;47.55;100798.25;110817;1264;27529;-68
2022/01/27 05:09:10;;;;;;;;;5.00;5.00;;;;;21.30;47.42;100780.46;110874;1264;21802;-69
2022/01/27 05:11:44;;;;;;;;;5.67;5.67;;;;;21.29;47.24;100773.83;110909;1264;20629;-68
2022/01/27 05:14:16;;;;;;;;;10.50;7.00;;;;;21.30;47.30;100769.98;110872;1262;18142;-68
2022/01/27 05:16:43;;;;;;;;;8.00;5.50;;;;;21.30;47.50;100767.97;110859;1264;18731;-71
2022/01/27 05:19:10;;;;;;;;;6.00;5.00;;;;;21.31;47.28;100773.48;110878;1262;18700;-68
2022/01/27 05:21:37;;;;;;;;;7.00;6.00;;;;;21.30;47.27;100760.70;110875;1264;21396;-69
2022/01/27 05:24:05;;;;;;;;;7.00;6.67;;;;;21.30;47.18;100754.50;110876;1263;21616;-70
2022/01/27 05:26:33;;;;;;;;;7.00;6.33;;;;;21.30;47.13;100750.14;110894;1264;18948;-71
2022/01/27 05:29:00;;;;;;;;;9.00;6.67;;;;;21.28;47.25;100746.14;110836;1263;18498;-71
2022/01/27 05:31:28;;;;;;;;;10.00;9.67;;;;;21.28;47.19;100743.08;110913;1262;20115;-69
2022/01/27 05:33:55;;;;;;;;;6.33;6.33;;;;;21.27;47.13;100744.92;110954;1263;18593;-68
2022/01/27 05:36:22;;;;;;;;;6.67;6.00;;;;;21.27;47.29;100739.67;110882;1262;18431;-70
2022/01/27 05:38:49;;;;;;;;;10.00;6.00;;;;;21.25;47.24;100732.65;110943;1264;19263;-68
2022/01/27 05:41:16;;;;;;;;;7.67;7.00;;;;;21.26;47.20;100737.41;110853;1262;18433;-71
2022/01/27 05:43:44;;;;;;;;;6.00;5.00;;;;;21.27;47.36;100735.02;110917;1265;28732;-72
2022/01/27 05:46:11;;;;;;;;;7.00;6.67;;;;;21.28;47.20;100735.96;110840;1264;19072;-68
2022/01/27 05:48:38;;;;;;;;;5.00;5.00;;;;;21.27;47.39;100732.77;110911;1262;18834;-68
2022/01/27 05:51:05;;;;;;;;;7.00;6.33;;;;;21.28;47.36;100730.89;110860;1262;18032;-68
2022/01/27 05:53:35;;;;;;;;;6.67;5.67;;;;;21.27;47.42;100717.58;110911;1263;20111;-70
2022/01/27 05:56:03;;;;;;;;;6.00;6.00;;;;;21.27;47.40;100716.45;110876;1264;18266;-71
2022/01/27 05:58:30;;;;;;;;;10.00;9.00;;;;;21.27;47.35;100716.66;110886;1262;18267;-68
2022/01/27 06:00:57;;;;;;;;;7.00;7.00;;;;;21.28;47.23;100718.36;110850;1264;25168;-68
2022/01/27 06:03:24;;;;;;;;;7.00;6.00;;;;;21.30;47.40;100724.48;110835;1262;18937;-68
2022/01/27 06:05:52;;;;;;;;;7.00;7.00;;;;;21.31;47.17;100730.40;110929;1264;18075;-68
2022/01/27 06:08:19;;;;;;;;;9.00;7.00;;;;;21.30;47.29;100730.17;110947;1262;19004;-67
2022/01/27 06:10:46;;;;;;;;;6.00;6.00;;;;;21.28;47.17;100724.64;110885;1262;22003;-67
2022/01/27 06:13:13;;;;;;;;;9.33;8.33;;;;;21.30;47.31;100719.20;110872;1261;17951;-68
2022/01/27 06:15:41;;;;;;;;;10.33;7.00;;;;;21.38;47.46;100717.70;110882;1262;21154;-68
2022/01/27 06:18:08;;;;;;;;;10.00;9.00;;;;;21.42;47.98;100704.52;110852;1262;18316;-68
2022/01/27 06:20:37;;;;;;;;;9.00;7.00;;;;;21.45;47.87;100716.87;110919;1262;18396;-69
2022/01/27 06:23:04;;;;;;;;;9.50;9.50;;;;;21.47;48.30;100719.21;110879;1265;18820;-68
2022/01/27 06:25:32;;;;;;;;;8.33;7.67;;;;;21.46;48.37;100721.91;110853;1262;18910;-68
2022/01/27 06:27:59;;;;;;;;;9.00;9.00;;;;;21.45;48.38;100720.38;110881;1261;18204;-68
2022/01/27 06:30:26;;;;;;;;;10.00;9.00;;;;;21.44;48.50;100715.92;110891;1262;19109;-69
2022/01/27 06:32:54;;;;;;;;;10.33;9.00;;;;;21.41;48.80;100708.66;110959;1262;19007;-68
2022/01/27 06:35:21;;;;;;;;;8.33;7.00;;;;;21.41;48.44;100701.42;110879;1262;19620;-70
2022/01/27 06:37:49;;;;;;;;;7.00;6.67;;;;;21.40;48.58;100691.10;110869;1262;22230;-70
2022/01/27 06:40:17;;;;;;;;;11.00;10.00;;;;;21.43;48.47;100683.52;110934;1263;20376;-68
2022/01/27 06:42:44;;;;;;;;;8.33;8.33;;;;;21.44;48.50;100671.61;110858;1263;20411;-67
2022/01/27 06:45:11;;;;;;;;;9.00;7.00;;;;;21.45;48.71;100664.92;110946;1264;21048;-69
2022/01/27 06:47:38;;;;;;;;;10.00;9.00;;;;;21.46;48.90;100655.54;110899;1264;22504;-67
2022/01/27 06:50:06;;;;;;;;;7.00;6.67;;;;;21.47;48.98;100647.80;110906;1262;18215;-69
2022/01/27 06:52:33;;;;;;;;;9.00;7.00;;;;;21.49;48.87;100655.73;110867;1265;18753;-68
2022/01/27 06:55:02;;;;;;;;;9.00;7.00;;;;;21.49;48.91;100651.50;110856;1264;19473;-68
2022/01/27 06:57:29;;;;;;;;;9.33;8.33;;;;;21.51;48.92;100658.73;110878;1262;18844;-68
2022/01/27 06:59:57;;;;;;;;;10.67;10.00;;;;;21.50;49.11;100651.14;110843;1262;19572;-69
2022/01/27 07:02:24;;;;;;;;;12.33;10.67;;;;;21.49;49.14;100656.92;110850;1263;18311;-69
2022/01/27 07:04:51;;;;;;;;;6.67;6.67;;;;;21.49;49.38;100660.05;110794;1263;18754;-69
2022/01/27 07:07:18;;;;;;;;;11.00;10.00;;;;;21.51;49.47;100649.39;110813;1263;18920;-69
2022/01/27 07:09:46;;;;;;;;;9.67;9.33;;;;;21.56;49.48;100643.70;110865;1262;18989;-68
2022/01/27 07:12:13;;;;;;;;;11.00;10.00;;;;;21.60;49.38;100639.09;110875;1264;19061;-68
2022/01/27 07:14:40;;;;;;;;;9.33;9.00;;;;;21.59;49.34;100634.94;110946;1263;18715;-70
2022/01/27 07:17:07;;;;;;;;;8.00;7.00;;;;;21.63;49.66;100638.34;110925;1264;19551;-67
2022/01/27 07:19:35;;;;;;;;;11.00;10.00;;;;;21.70;49.86;100634.83;110904;1264;21304;-68
2022/01/27 07:22:02;;;;;;;;;11.00;10.00;;;;;21.71;49.95;100635.38;110897;1264;19678;-69
2022/01/27 07:24:29;;;;;;;;;9.00;9.00;;;;;21.69;50.06;100629.52;110813;1262;18804;-70
2022/01/27 07:26:56;;;;;;;;;10.00;10.00;;;;;21.65;49.97;100622.86;110918;1264;18064;-70
2022/01/27 07:29:23;;;;;;;;;13.00;12.33;;;;;21.63;49.93;100620.91;110830;1264;20868;-71
2022/01/27 07:31:51;;;;;;;;;12.33;11.67;;;;;21.59;49.93;100623.52;110883;1264;19011;-70
2022/01/27 07:34:18;;;;;;;;;19.00;18.00;;;;;21.57;49.79;100621.83;110862;1262;18172;-71
2022/01/27 07:36:45;;;;;;;;;23.00;18.50;;;;;21.57;49.71;100616.48;110896;1264;18798;-70
2022/01/27 07:39:15;;;;;;;;;22.33;20.33;;;;;21.61;49.69;100605.70;110909;1264;22210;-69
2022/01/27 07:41:44;;;;;;;;;19.00;17.00;;;;;21.62;49.82;100609.83;110862;1263;18178;-69
2022/01/27 07:44:11;;;;;;;;;23.33;22.00;;;;;21.61;49.81;100601.50;110894;1262;19418;-67
2022/01/27 07:46:38;;;;;;;;;23.00;21.33;;;;;21.62;49.76;100602.69;110824;1264;19827;-70
2022/01/27 07:49:06;;;;;;;;;29.67;27.33;;;;;21.59;49.96;100597.23;110845;1262;18209;-71
2022/01/27 07:51:33;;;;;;;;;27.33;26.33;;;;;21.57;50.20;100583.62;110813;1264;18567;-68
2022/01/27 07:54:00;;;;;;;;;30.00;27.00;;;;;21.56;50.19;100569.58;110921;1264;19393;-70
2022/01/27 07:56:27;;;;;;;;;34.33;29.33;;;;;21.58;50.04;100563.13;110870;1264;18390;-69
2022/01/27 07:58:55;;;;;;;;;29.33;27.00;;;;;21.58;50.19;100555.89;110915;1264;18979;-71
2022/01/27 08:01:22;;;;;;;;;30.33;26.67;;;;;21.59;50.57;100553.17;110886;1265;18860;-70
2022/01/27 08:03:50;;;;;;;;;34.50;30.00;;;;;21.66;50.67;100553.15;110846;1264;18685;-70
2022/01/27 08:06:17;;;;;;;;;30.00;29.33;;;;;21.70;50.55;100554.84;110888;1264;19098;-68
2022/01/27 08:08:44;;;;;;;;;37.33;31.00;;;;;21.67;50.78;100553.47;110946;1263;19182;-69
2022/01/27 08:11:12;;;;;;;;;36.00;29.00;;;;;21.66;50.66;100550.90;110839;1264;18348;-69
2022/01/27 08:13:39;;;;;;;;;38.00;31.00;;;;;21.65;50.60;100556.84;110820;1265;18753;-69
2022/01/27 08:16:06;;;;;;;;;32.67;31.00;;;;;21.69;50.04;100559.31;110843;1263;19601;-70
2022/01/27 08:18:33;;;;;;;;;33.00;28.00;;;;;21.70;50.09;100557.70;110470;1263;20622;-69
2022/01/27 08:21:00;;;;;;;;;31.00;27.00;;;;;21.67;50.69;100548.14;110450;1264;21121;-69
2022/01/27 08:23:28;;;;;;;;;28.33;26.00;;;;;21.64;50.68;100541.95;110512;1264;19683;-69
2022/01/27 08:26:03;;;;;;;;;33.67;30.33;;;;;21.60;50.87;100532.89;110593;1264;19056;-70
2022/01/27 08:28:36;;;;;;;;;32.00;31.00;;;;;21.62;50.84;100529.46;110593;1264;18827;-71
2022/01/27 08:31:04;;;;;;;;;32.00;30.50;;;;;21.60;50.62;100526.14;110621;1264;20877;-70
2022/01/27 08:33:31;;;;;;;;;40.00;35.67;;;;;21.56;50.36;100521.17;110618;1264;18894;-70
2022/01/27 08:36:00;;;;;;;;;40.00;35.00;;;;;21.56;50.27;100524.11;111310;1264;18847;-70
2022/01/27 08:38:27;;;;;;;;;39.00;35.67;;;;;21.55;50.34;100518.42;110609;1264;23135;-69
2022/01/27 08:40:54;;;;;;;;;44.67;34.00;;;;;21.53;50.25;100513.23;110630;1264;20140;-70
2022/01/27 08:43:21;;;;;;;;;36.50;31.50;;;;;21.53;50.07;100504.81;111031;1264;19697;-69
2022/01/27 08:45:50;;;;;;;;;40.67;35.00;;;;;21.54;50.14;100512.50;110787;1264;19534;-72
2022/01/27 08:48:20;;;;;;;;;35.33;31.00;;;;;21.56;50.13;100512.06;110817;1264;18218;-68
2022/01/27 08:50:53;;;;;;;;;43.33;32.67;;;;;21.54;50.01;100510.36;110841;1262;20063;-69
2022/01/27 08:53:20;;;;;;;;;41.67;32.00;;;;;21.57;50.10;100508.35;110866;1264;18819;-70
2022/01/27 08:55:47;;;;;;;;;36.50;33.50;;;;;21.61;50.25;100505.17;110906;1262;18496;-70
2022/01/27 08:58:14;;;;;;;;;45.00;35.00;;;;;21.63;50.30;100507.83;110869;1262;23988;-70
2022/01/27 09:00:42;;;;;;;;;42.00;36.33;;;;;21.62;50.43;100502.45;110878;1264;18714;-72
2022/01/27 09:03:09;;;;;;;;;39.00;36.50;;;;;21.64;50.09;100503.15;110873;1264;21971;-73
2022/01/27 09:05:38;;;;;;;;;37.00;32.33;;;;;21.65;50.30;100502.84;110907;1263;18654;-71
2022/01/27 09:08:05;;;;;;;;;35.00;32.00;;;;;21.66;50.06;100495.42;110905;1262;19162;-74
2022/01/27 09:10:33;;;;;;;;;40.33;34.67;;;;;21.67;50.14;100492.63;110856;1263;18609;-73
2022/01/27 09:13:00;;;;;;;;;36.33;33.33;;;;;21.71;50.24;100486.67;110918;1262;25167;-78
2022/01/27 09:15:28;;;;;;;;;37.67;33.33;;;;;21.76;50.56;100483.16;110700;1262;18682;-74
2022/01/27 09:17:56;;;;;;;;;45.00;34.33;;;;;21.77;50.63;100477.05;110675;1262;18542;-73
2022/01/27 09:20:23;;;;;;;;;35.67;30.67;;;;;21.79;50.66;100474.82;110701;1262;18828;-75
2022/01/27 09:22:53;;;;;;;;;32.67;27.67;;;;;21.79;50.62;100472.97;110705;1264;21713;-72
2022/01/27 09:25:29;;;;;;;;;35.00;28.50;;;;;21.80;50.65;100469.33;110814;1262;18189;-74
2022/01/27 09:27:56;;;;;;;;;34.67;28.33;;;;;21.80;50.97;100465.14;110803;1262;18766;-71
2022/01/27 09:30:23;;;;;;;;;32.00;27.67;;;;;21.80;50.85;100459.20;110804;1260;18976;-71
2022/01/27 09:32:51;;;;;;;;;25.33;24.00;;;;;21.60;50.23;100460.38;110840;1262;22946;-73
2022/01/27 09:35:18;;;;;;;;;28.00;23.00;;;;;21.49;49.61;100456.25;110870;1262;18755;-73
2022/01/27 09:37:45;;;;;;;;;25.67;22.67;;;;;21.46;49.22;100446.09;110869;1262;18804;-71
2022/01/27 09:40:12;;;;;;;;;23.33;22.67;;;;;21.39;48.14;100442.35;110878;1262;20745;-70
2022/01/27 09:42:40;;;;;;;;;26.00;23.00;;;;;21.32;47.66;100440.36;110897;1262;18847;-69
2022/01/27 09:45:08;;;;;;;;;22.00;19.00;;;;;21.27;47.00;100429.92;110867;1262;18811;-69
2022/01/27 09:47:39;;;;;;;;;24.33;22.67;;;;;21.17;45.99;100424.96;110852;1265;18553;-67
2022/01/27 09:50:19;;;;;;;;;25.00;21.67;;;;;21.13;45.65;100418.91;110791;1262;19628;-69
2022/01/27 09:52:47;;;;;;;;;21.67;17.33;;;;;21.11;45.81;100410.73;110824;1262;18910;-68
2022/01/27 09:55:14;;;;;;;;;23.00;20.00;;;;;21.23;46.24;100406.60;110921;1262;18364;-69
2022/01/27 09:57:41;;;;;;;;;24.67;19.00;;;;;21.35;46.01;100397.28;110860;1263;19962;-69
2022/01/27 10:00:08;;;;;;;;;22.33;17.00;;;;;21.40;46.15;100390.72;110869;1262;20463;-70
2022/01/27 10:02:36;;;;;;;;;19.00;15.00;;;;;21.40;46.38;100393.41;110855;1264;18758;-71
2022/01/27 10:05:03;;;;;;;;;19.33;18.33;;;;;21.43;46.80;100392.70;110740;1262;18962;-69
2022/01/27 10:07:33;;;;;;;;;23.00;20.33;;;;;21.43;46.87;100385.02;110849;1262;20360;-68
2022/01/27 10:10:00;;;;;;;;;19.67;19.00;;;;;21.46;47.15;100387.98;110800;1262;18440;-69
2022/01/27 10:12:28;;;;;;;;;19.33;17.00;;;;;21.47;47.41;100381.28;110793;1262;20253;-70
2022/01/27 10:14:55;;;;;;;;;20.00;17.00;;;;;21.48;47.60;100381.29;110823;1262;18859;-71
2022/01/27 10:17:22;;;;;;;;;22.50;15.00;;;;;21.50;47.63;100375.66;110793;1262;20189;-68
2022/01/27 10:19:50;;;;;;;;;22.00;18.00;;;;;21.52;47.66;100369.95;110787;1263;19062;-69
2022/01/27 10:22:17;;;;;;;;;17.67;15.33;;;;;21.54;48.04;100372.61;110830;1261;20569;-69
2022/01/27 10:24:45;;;;;;;;;18.00;16.67;;;;;21.58;47.96;100369.14;110866;1262;18764;-68
2022/01/27 10:27:17;;;;;;;;;19.00;15.67;;;;;21.62;48.33;100362.85;110826;1262;18946;-67
2022/01/27 10:30:01;;;;;;;;;15.00;14.00;;;;;21.64;48.69;100355.70;110981;1261;22611;-68
2022/01/27 10:32:28;;;;;;;;;15.00;15.00;;;;;21.65;48.53;100353.38;110859;1265;18660;-67
2022/01/27 10:34:55;;;;;;;;;18.67;13.67;;;;;21.63;48.66;100348.60;110849;1262;19355;-69
2022/01/27 10:37:23;;;;;;;;;16.33;14.00;;;;;21.60;48.84;100339.27;110788;1262;21405;-70
2022/01/27 10:39:50;;;;;;;;;18.00;14.33;;;;;21.57;49.55;100332.21;110911;1262;18342;-67
2022/01/27 10:42:17;;;;;;;;;30.33;26.33;;;;;21.07;48.53;100342.54;110862;1262;21735;-67
2022/01/27 10:44:47;;;;;;;;;101.67;86.67;;;;;20.58;48.03;100337.31;110835;1264;18700;-68
2022/01/27 10:47:17;;;;;;;;;269.75;232.00;;;;;20.43;47.89;100336.93;110909;1263;21053;-68
2022/01/27 10:49:48;;;;;;;;;294.75;240.25;;;;;20.31;48.11;100331.96;110844;1262;22174;-68
2022/01/27 10:52:15;;;;;;;;;254.75;212.00;;;;;20.26;48.29;100330.27;110803;1262;19183;-67
2022/01/27 10:54:49;;;;;;;;;213.50;188.25;;;;;20.53;48.57;100327.19;110797;1263;19999;-67
2022/01/27 10:57:16;;;;;;;;;209.50;168.75;;;;;20.73;48.27;100316.64;110793;1262;19211;-69
2022/01/27 10:59:44;;;;;;;;;177.00;148.33;;;;;20.75;47.68;100317.84;110855;1262;19363;-68
2022/01/27 11:02:11;;;;;;;;;162.50;136.75;;;;;20.73;47.73;100317.82;110888;1262;19345;-67
2022/01/27 11:04:38;;;;;;;;;146.50;119.75;;;;;20.71;47.48;100309.62;110895;1262;18778;-67
2022/01/27 11:07:05;;;;;;;;;139.50;122.00;;;;;20.78;47.31;100305.83;110892;1262;19037;-69
2022/01/27 11:09:35;;;;;;;;;131.75;115.25;;;;;21.01;47.48;100302.84;110883;1265;19001;-69
2022/01/27 11:12:07;;;;;;;;;124.25;108.00;;;;;21.21;47.86;100296.13;110898;1264;18729;-70
2022/01/27 11:14:35;;;;;;;;;119.50;104.00;;;;;21.35;48.14;100292.64;110902;1264;19186;-69
2022/01/27 11:17:02;;;;;;;;;116.75;100.00;;;;;21.42;48.53;100283.75;110842;1262;18809;-68
2022/01/27 11:19:57;;;;;;;;;108.50;97.75;;;;;21.45;48.70;100275.55;110817;1264;18787;-68
2022/01/27 11:22:46;;;;;;;;;102.25;87.00;;;;;21.48;48.88;100270.45;110791;1262;19091;-68
2022/01/27 11:27:55;;;;;;;;;96.33;76.33;;;;;21.55;49.08;100254.11;110838;1262;18972;-69
2022/01/27 11:30:22;;;;;;;;;97.00;76.67;;;;;21.57;48.77;100256.39;110758;1262;19076;-67
2022/01/27 11:32:49;;;;;;;;;94.00;74.67;;;;;21.60;48.98;100249.13;111055;1262;18259;-66
2022/01/27 11:35:16;;;;;;;;;90.67;69.33;;;;;21.64;49.29;100246.98;110876;1264;20145;-70
2022/01/27 11:37:44;;;;;;;;;88.67;68.00;;;;;21.62;49.24;100240.67;110854;1264;18790;-70
2022/01/27 11:40:11;;;;;;;;;87.33;68.67;;;;;21.60;49.25;100237.14;110932;1262;18355;-67